sensor_id;sensor_type;location;lat;lon;timestamp;P1;durP1;ratioP1;P2;durP2;ratioP2
26774;SDS011;14362;51.902;7.626;2023-02-18T00:00:50;42.78;;;28.55;;
26774;SDS011;14362;51.902;7.626;2023-02-18T00:04:53;38.90;;;28.73;;
26774;SDS011;14362;51.902;7.626;2023-02-18T00:08:54;42.13;;;28.02;;
26774;SDS011;14362;51.902;7.626;2023-02-18T00:12:59;44.25;;;29.27;;
26774;SDS011;14362;51.902;7.626;2023-02-18T00:17:01;49.35;;;30.50;;
26774;SDS011;14362;51.902;7.626;2023-02-18T00:21:03;41.78;;;30.42;;
26774;SDS011;14362;51.902;7.626;2023-02-18T00:25:06;40.35;;;31.45;;
26774;SDS011;14362;51.902;7.626;2023-02-18T00:29:07;44.55;;;31.58;;
26774;SDS011;14362;51.902;7.626;2023-02-18T00:33:10;46.38;;;31.02;;
26774;SDS011;14362;51.902;7.626;2023-02-18T00:37:12;43.78;;;31.60;;
26774;SDS011;14362;51.902;7.626;2023-02-18T00:41:13;42.78;;;32.13;;
26774;SDS011;14362;51.902;7.626;2023-02-18T00:45:16;48.53;;;31.52;;
26774;SDS011;14362;51.902;7.626;2023-02-18T00:49:18;45.50;;;30.55;;
26774;SDS011;14362;51.902;7.626;2023-02-18T00:53:20;46.10;;;31.10;;
26774;SDS011;14362;51.902;7.626;2023-02-18T00:57:21;46.67;;;31.95;;
26774;SDS011;14362;51.902;7.626;2023-02-18T01:01:23;44.33;;;29.73;;
26774;SDS011;14362;51.902;7.626;2023-02-18T01:05:26;41.70;;;29.73;;
26774;SDS011;14362;51.902;7.626;2023-02-18T01:09:28;43.15;;;30.45;;
26774;SDS011;14362;51.902;7.626;2023-02-18T01:13:30;45.33;;;30.70;;
26774;SDS011;14362;51.902;7.626;2023-02-18T01:17:31;42.85;;;29.75;;
26774;SDS011;14362;51.902;7.626;2023-02-18T01:21:34;47.72;;;32.92;;
26774;SDS011;14362;51.902;7.626;2023-02-18T01:25:36;46.45;;;31.05;;
26774;SDS011;14362;51.902;7.626;2023-02-18T01:29:38;38.95;;;29.48;;
26774;SDS011;14362;51.902;7.626;2023-02-18T01:33:39;43.88;;;29.88;;
26774;SDS011;14362;51.902;7.626;2023-02-18T01:37:42;45.50;;;30.15;;
26774;SDS011;14362;51.902;7.626;2023-02-18T01:41:44;46.15;;;32.88;;
26774;SDS011;14362;51.902;7.626;2023-02-18T01:45:49;43.53;;;31.40;;
26774;SDS011;14362;51.902;7.626;2023-02-18T01:49:58;44.13;;;31.33;;
26774;SDS011;14362;51.902;7.626;2023-02-18T01:54:02;44.17;;;31.65;;
26774;SDS011;14362;51.902;7.626;2023-02-18T01:58:06;48.33;;;31.58;;
26774;SDS011;14362;51.902;7.626;2023-02-18T02:02:10;45.10;;;31.85;;
26774;SDS011;14362;51.902;7.626;2023-02-18T02:06:15;44.90;;;32.78;;
26774;SDS011;14362;51.902;7.626;2023-02-18T02:10:19;50.28;;;32.88;;
26774;SDS011;14362;51.902;7.626;2023-02-18T02:14:24;48.13;;;33.45;;
26774;SDS011;14362;51.902;7.626;2023-02-18T02:18:39;44.47;;;32.87;;
26774;SDS011;14362;51.902;7.626;2023-02-18T02:23:00;52.42;;;33.00;;
26774;SDS011;14362;51.902;7.626;2023-02-18T02:27:26;48.17;;;32.70;;
26774;SDS011;14362;51.902;7.626;2023-02-18T02:31:45;50.75;;;33.72;;
26774;SDS011;14362;51.902;7.626;2023-02-18T02:36:00;45.63;;;31.50;;
26774;SDS011;14362;51.902;7.626;2023-02-18T02:40:09;44.72;;;30.10;;
26774;SDS011;14362;51.902;7.626;2023-02-18T02:44:20;42.38;;;29.02;;
26774;SDS011;14362;51.902;7.626;2023-02-18T02:48:28;46.40;;;29.67;;
26774;SDS011;14362;51.902;7.626;2023-02-18T02:52:37;39.47;;;26.88;;
26774;SDS011;14362;51.902;7.626;2023-02-18T02:56:44;36.58;;;25.88;;
26774;SDS011;14362;51.902;7.626;2023-02-18T03:00:49;35.00;;;24.40;;
26774;SDS011;14362;51.902;7.626;2023-02-18T03:05:09;39.00;;;26.25;;
26774;SDS011;14362;51.902;7.626;2023-02-18T03:09:22;35.03;;;24.30;;
26774;SDS011;14362;51.902;7.626;2023-02-18T03:13:40;37.60;;;25.23;;
26774;SDS011;14362;51.902;7.626;2023-02-18T03:17:54;35.30;;;25.30;;
26774;SDS011;14362;51.902;7.626;2023-02-18T03:22:03;38.15;;;26.83;;
26774;SDS011;14362;51.902;7.626;2023-02-18T03:26:09;41.53;;;26.08;;
26774;SDS011;14362;51.902;7.626;2023-02-18T03:30:15;40.08;;;25.92;;
26774;SDS011;14362;51.902;7.626;2023-02-18T03:34:22;41.30;;;26.80;;
26774;SDS011;14362;51.902;7.626;2023-02-18T03:42:31;41.90;;;27.92;;
26774;SDS011;14362;51.902;7.626;2023-02-18T03:46:33;41.88;;;28.10;;
26774;SDS011;14362;51.902;7.626;2023-02-18T03:50:37;44.10;;;27.13;;
26774;SDS011;14362;51.902;7.626;2023-02-18T03:54:38;36.55;;;25.10;;
26774;SDS011;14362;51.902;7.626;2023-02-18T03:58:41;39.22;;;25.40;;
26774;SDS011;14362;51.902;7.626;2023-02-18T04:02:42;40.70;;;24.85;;
26774;SDS011;14362;51.902;7.626;2023-02-18T04:06:44;39.10;;;24.52;;
26774;SDS011;14362;51.902;7.626;2023-02-18T04:10:45;41.38;;;26.17;;
26774;SDS011;14362;51.902;7.626;2023-02-18T04:14:48;48.50;;;28.95;;
26774;SDS011;14362;51.902;7.626;2023-02-18T04:18:49;51.00;;;31.23;;
26774;SDS011;14362;51.902;7.626;2023-02-18T04:22:51;52.95;;;33.20;;
26774;SDS011;14362;51.902;7.626;2023-02-18T04:26:52;53.20;;;31.45;;
26774;SDS011;14362;51.902;7.626;2023-02-18T04:30:55;50.08;;;30.42;;
26774;SDS011;14362;51.902;7.626;2023-02-18T04:34:57;52.70;;;29.30;;
26774;SDS011;14362;51.902;7.626;2023-02-18T04:38:58;51.08;;;29.88;;
26774;SDS011;14362;51.902;7.626;2023-02-18T04:43:00;48.05;;;26.08;;
26774;SDS011;14362;51.902;7.626;2023-02-18T04:47:03;41.63;;;24.45;;
26774;SDS011;14362;51.902;7.626;2023-02-18T04:51:06;46.53;;;20.90;;
26774;SDS011;14362;51.902;7.626;2023-02-18T04:55:07;33.60;;;17.88;;
26774;SDS011;14362;51.902;7.626;2023-02-18T04:59:09;36.40;;;19.83;;
26774;SDS011;14362;51.902;7.626;2023-02-18T05:03:12;32.80;;;19.05;;
26774;SDS011;14362;51.902;7.626;2023-02-18T05:07:14;37.67;;;21.45;;
26774;SDS011;14362;51.902;7.626;2023-02-18T05:11:15;39.08;;;21.92;;
26774;SDS011;14362;51.902;7.626;2023-02-18T05:15:16;37.72;;;21.33;;
26774;SDS011;14362;51.902;7.626;2023-02-18T05:19:19;42.10;;;23.00;;
26774;SDS011;14362;51.902;7.626;2023-02-18T05:23:21;41.30;;;24.65;;
26774;SDS011;14362;51.902;7.626;2023-02-18T05:27:24;41.13;;;23.58;;
26774;SDS011;14362;51.902;7.626;2023-02-18T05:31:26;41.35;;;22.80;;
26774;SDS011;14362;51.902;7.626;2023-02-18T05:35:29;36.38;;;21.20;;
26774;SDS011;14362;51.902;7.626;2023-02-18T05:39:30;39.38;;;21.48;;
26774;SDS011;14362;51.902;7.626;2023-02-18T05:43:31;39.50;;;22.30;;
26774;SDS011;14362;51.902;7.626;2023-02-18T05:47:54;43.20;;;24.23;;
26774;SDS011;14362;51.902;7.626;2023-02-18T05:51:57;44.20;;;25.70;;
26774;SDS011;14362;51.902;7.626;2023-02-18T05:55:59;46.75;;;27.73;;
26774;SDS011;14362;51.902;7.626;2023-02-18T06:00:00;48.13;;;28.20;;
26774;SDS011;14362;51.902;7.626;2023-02-18T06:04:02;48.05;;;28.25;;
26774;SDS011;14362;51.902;7.626;2023-02-18T06:08:05;43.20;;;27.38;;
26774;SDS011;14362;51.902;7.626;2023-02-18T06:12:06;37.22;;;24.15;;
26774;SDS011;14362;51.902;7.626;2023-02-18T06:16:08;30.90;;;22.92;;
26774;SDS011;14362;51.902;7.626;2023-02-18T06:20:10;31.35;;;22.13;;
26774;SDS011;14362;51.902;7.626;2023-02-18T06:24:13;27.98;;;20.75;;
26774;SDS011;14362;51.902;7.626;2023-02-18T06:28:14;24.25;;;19.35;;
26774;SDS011;14362;51.902;7.626;2023-02-18T06:32:16;24.42;;;18.13;;
26774;SDS011;14362;51.902;7.626;2023-02-18T06:36:17;19.58;;;16.55;;
26774;SDS011;14362;51.902;7.626;2023-02-18T06:40:20;19.92;;;14.38;;
26774;SDS011;14362;51.902;7.626;2023-02-18T06:44:22;14.52;;;13.00;;
26774;SDS011;14362;51.902;7.626;2023-02-18T06:48:23;11.88;;;10.68;;
26774;SDS011;14362;51.902;7.626;2023-02-18T06:52:25;11.10;;;9.90;;
26774;SDS011;14362;51.902;7.626;2023-02-18T06:56:28;10.57;;;9.07;;
26774;SDS011;14362;51.902;7.626;2023-02-18T07:00:30;8.95;;;8.05;;
26774;SDS011;14362;51.902;7.626;2023-02-18T07:04:31;7.97;;;7.13;;
26774;SDS011;14362;51.902;7.626;2023-02-18T07:08:33;4.85;;;4.35;;
26774;SDS011;14362;51.902;7.626;2023-02-18T07:12:37;6.97;;;4.07;;
26774;SDS011;14362;51.902;7.626;2023-02-18T07:16:39;3.78;;;3.17;;
26774;SDS011;14362;51.902;7.626;2023-02-18T07:20:40;4.70;;;3.83;;
26774;SDS011;14362;51.902;7.626;2023-02-18T07:24:42;3.88;;;3.20;;
26774;SDS011;14362;51.902;7.626;2023-02-18T07:28:45;4.00;;;2.70;;
26774;SDS011;14362;51.902;7.626;2023-02-18T07:32:46;3.08;;;2.63;;
26774;SDS011;14362;51.902;7.626;2023-02-18T07:36:48;4.53;;;2.55;;
26774;SDS011;14362;51.902;7.626;2023-02-18T07:40:49;2.80;;;2.50;;
26774;SDS011;14362;51.902;7.626;2023-02-18T07:44:52;4.32;;;2.65;;
26774;SDS011;14362;51.902;7.626;2023-02-18T07:48:53;2.85;;;2.25;;
26774;SDS011;14362;51.902;7.626;2023-02-18T07:52:56;2.03;;;1.85;;
26774;SDS011;14362;51.902;7.626;2023-02-18T07:56:57;2.15;;;1.95;;
26774;SDS011;14362;51.902;7.626;2023-02-18T08:01:00;2.45;;;2.17;;
26774;SDS011;14362;51.902;7.626;2023-02-18T08:05:05;3.05;;;1.90;;
26774;SDS011;14362;51.902;7.626;2023-02-18T08:09:06;2.55;;;2.20;;
26774;SDS011;14362;51.902;7.626;2023-02-18T08:13:08;2.50;;;2.08;;
26774;SDS011;14362;51.902;7.626;2023-02-18T08:17:11;3.50;;;3.00;;
26774;SDS011;14362;51.902;7.626;2023-02-18T08:21:13;3.17;;;2.42;;
26774;SDS011;14362;51.902;7.626;2023-02-18T08:25:15;3.75;;;3.10;;
26774;SDS011;14362;51.902;7.626;2023-02-18T08:29:16;3.08;;;2.70;;
26774;SDS011;14362;51.902;7.626;2023-02-18T08:33:19;3.60;;;2.53;;
26774;SDS011;14362;51.902;7.626;2023-02-18T08:37:22;3.28;;;2.90;;
26774;SDS011;14362;51.902;7.626;2023-02-18T08:41:24;3.20;;;2.63;;
26774;SDS011;14362;51.902;7.626;2023-02-18T08:45:26;3.97;;;2.60;;
26774;SDS011;14362;51.902;7.626;2023-02-18T08:49:28;3.03;;;2.60;;
26774;SDS011;14362;51.902;7.626;2023-02-18T08:53:30;2.75;;;2.42;;
26774;SDS011;14362;51.902;7.626;2023-02-18T08:57:31;4.97;;;3.00;;
26774;SDS011;14362;51.902;7.626;2023-02-18T09:01:33;4.30;;;2.88;;
26774;SDS011;14362;51.902;7.626;2023-02-18T09:05:36;4.40;;;2.60;;
26774;SDS011;14362;51.902;7.626;2023-02-18T09:09:39;3.15;;;2.63;;
26774;SDS011;14362;51.902;7.626;2023-02-18T09:13:41;4.43;;;2.95;;
26774;SDS011;14362;51.902;7.626;2023-02-18T09:17:42;3.35;;;2.90;;
26774;SDS011;14362;51.902;7.626;2023-02-18T09:21:45;3.92;;;3.00;;
26774;SDS011;14362;51.902;7.626;2023-02-18T09:25:46;3.55;;;2.95;;
26774;SDS011;14362;51.902;7.626;2023-02-18T09:29:47;6.10;;;3.83;;
26774;SDS011;14362;51.902;7.626;2023-02-18T09:33:51;5.88;;;5.38;;
26774;SDS011;14362;51.902;7.626;2023-02-18T09:37:55;6.68;;;4.82;;
26774;SDS011;14362;51.902;7.626;2023-02-18T09:41:57;4.63;;;3.65;;
26774;SDS011;14362;51.902;7.626;2023-02-18T09:46:01;4.43;;;3.08;;
26774;SDS011;14362;51.902;7.626;2023-02-18T09:50:06;6.07;;;4.00;;
26774;SDS011;14362;51.902;7.626;2023-02-18T09:54:15;4.45;;;3.60;;
26774;SDS011;14362;51.902;7.626;2023-02-18T09:58:19;5.22;;;4.20;;
26774;SDS011;14362;51.902;7.626;2023-02-18T10:02:23;8.20;;;4.65;;
26774;SDS011;14362;51.902;7.626;2023-02-18T10:06:25;6.25;;;5.05;;
26774;SDS011;14362;51.902;7.626;2023-02-18T10:10:35;6.28;;;5.55;;
26774;SDS011;14362;51.902;7.626;2023-02-18T10:14:39;7.53;;;5.90;;
26774;SDS011;14362;51.902;7.626;2023-02-18T10:18:41;9.70;;;6.82;;
26774;SDS011;14362;51.902;7.626;2023-02-18T10:22:48;12.73;;;7.82;;
26774;SDS011;14362;51.902;7.626;2023-02-18T10:26:51;10.10;;;8.35;;
26774;SDS011;14362;51.902;7.626;2023-02-18T10:30:55;14.33;;;9.00;;
26774;SDS011;14362;51.902;7.626;2023-02-18T10:35:01;13.18;;;7.95;;
26774;SDS011;14362;51.902;7.626;2023-02-18T10:39:12;16.85;;;8.98;;
26774;SDS011;14362;51.902;7.626;2023-02-18T10:43:34;11.95;;;7.85;;
26774;SDS011;14362;51.902;7.626;2023-02-18T10:47:46;13.85;;;8.30;;
26774;SDS011;14362;51.902;7.626;2023-02-18T10:51:58;11.98;;;8.60;;
26774;SDS011;14362;51.902;7.626;2023-02-18T10:56:05;13.70;;;8.40;;
26774;SDS011;14362;51.902;7.626;2023-02-18T11:00:15;14.52;;;7.85;;
26774;SDS011;14362;51.902;7.626;2023-02-18T11:04:20;12.15;;;7.75;;
26774;SDS011;14362;51.902;7.626;2023-02-18T11:08:24;14.35;;;7.55;;
26774;SDS011;14362;51.902;7.626;2023-02-18T11:12:28;12.20;;;7.57;;
26774;SDS011;14362;51.902;7.626;2023-02-18T11:16:36;9.57;;;6.75;;
26774;SDS011;14362;51.902;7.626;2023-02-18T11:20:40;12.18;;;6.75;;
26774;SDS011;14362;51.902;7.626;2023-02-18T11:24:41;9.40;;;5.93;;
26774;SDS011;14362;51.902;7.626;2023-02-18T11:28:47;8.93;;;6.38;;
26774;SDS011;14362;51.902;7.626;2023-02-18T11:32:52;10.50;;;6.35;;
26774;SDS011;14362;51.902;7.626;2023-02-18T11:37:06;8.40;;;5.80;;
26774;SDS011;14362;51.902;7.626;2023-02-18T11:41:09;8.52;;;5.90;;
26774;SDS011;14362;51.902;7.626;2023-02-18T11:45:25;8.27;;;6.13;;
26774;SDS011;14362;51.902;7.626;2023-02-18T11:49:29;11.27;;;6.75;;
26774;SDS011;14362;51.902;7.626;2023-02-18T11:53:33;8.43;;;6.05;;
26774;SDS011;14362;51.902;7.626;2023-02-18T11:57:37;9.18;;;6.55;;
26774;SDS011;14362;51.902;7.626;2023-02-18T12:01:42;6.20;;;5.60;;
26774;SDS011;14362;51.902;7.626;2023-02-18T12:05:47;8.13;;;6.20;;
26774;SDS011;14362;51.902;7.626;2023-02-18T12:09:50;7.47;;;5.80;;
26774;SDS011;14362;51.902;7.626;2023-02-18T12:13:56;8.43;;;5.97;;
26774;SDS011;14362;51.902;7.626;2023-02-18T12:18:09;7.63;;;6.00;;
26774;SDS011;14362;51.902;7.626;2023-02-18T12:22:23;9.05;;;6.10;;
26774;SDS011;14362;51.902;7.626;2023-02-18T12:26:34;9.73;;;6.07;;
26774;SDS011;14362;51.902;7.626;2023-02-18T12:31:01;7.57;;;5.97;;
26774;SDS011;14362;51.902;7.626;2023-02-18T12:35:28;10.35;;;5.60;;
26774;SDS011;14362;51.902;7.626;2023-02-18T12:39:43;8.38;;;6.38;;
26774;SDS011;14362;51.902;7.626;2023-02-18T12:44:00;7.35;;;6.45;;
26774;SDS011;14362;51.902;7.626;2023-02-18T12:48:25;9.48;;;7.35;;
26774;SDS011;14362;51.902;7.626;2023-02-18T12:52:39;9.60;;;8.20;;
26774;SDS011;14362;51.902;7.626;2023-02-18T12:56:55;11.73;;;7.63;;
26774;SDS011;14362;51.902;7.626;2023-02-18T13:01:10;11.38;;;8.15;;
26774;SDS011;14362;51.902;7.626;2023-02-18T13:05:23;16.35;;;8.73;;
26774;SDS011;14362;51.902;7.626;2023-02-18T13:09:32;12.65;;;8.38;;
26774;SDS011;14362;51.902;7.626;2023-02-18T13:13:46;13.38;;;8.93;;
26774;SDS011;14362;51.902;7.626;2023-02-18T13:17:55;13.45;;;8.18;;
26774;SDS011;14362;51.902;7.626;2023-02-18T13:22:01;13.27;;;8.98;;
26774;SDS011;14362;51.902;7.626;2023-02-18T13:26:05;16.48;;;9.25;;
26774;SDS011;14362;51.902;7.626;2023-02-18T13:30:22;13.60;;;8.13;;
26774;SDS011;14362;51.902;7.626;2023-02-18T13:34:29;14.15;;;8.60;;
26774;SDS011;14362;51.902;7.626;2023-02-18T13:38:47;10.00;;;8.15;;
26774;SDS011;14362;51.902;7.626;2023-02-18T13:42:54;12.00;;;8.73;;
26774;SDS011;14362;51.902;7.626;2023-02-18T13:51:40;11.88;;;8.30;;
26774;SDS011;14362;51.902;7.626;2023-02-18T13:55:47;8.55;;;6.45;;
26774;SDS011;14362;51.902;7.626;2023-02-18T13:59:56;10.98;;;6.55;;
26774;SDS011;14362;51.902;7.626;2023-02-18T14:04:31;7.63;;;6.18;;
26774;SDS011;14362;51.902;7.626;2023-02-18T14:08:47;8.35;;;6.07;;
26774;SDS011;14362;51.902;7.626;2023-02-18T14:21:43;8.68;;;6.43;;
26774;SDS011;14362;51.902;7.626;2023-02-18T14:25:48;11.23;;;7.07;;
26774;SDS011;14362;51.902;7.626;2023-02-18T14:29:51;7.95;;;7.03;;
26774;SDS011;14362;51.902;7.626;2023-02-18T14:33:59;10.15;;;7.60;;
26774;SDS011;14362;51.902;7.626;2023-02-18T14:38:17;10.13;;;7.57;;
26774;SDS011;14362;51.902;7.626;2023-02-18T14:42:33;12.05;;;8.50;;
26774;SDS011;14362;51.902;7.626;2023-02-18T14:46:45;14.13;;;8.68;;
26774;SDS011;14362;51.902;7.626;2023-02-18T14:50:59;13.20;;;8.63;;
26774;SDS011;14362;51.902;7.626;2023-02-18T14:55:03;12.65;;;8.75;;
26774;SDS011;14362;51.902;7.626;2023-02-18T14:59:07;8.43;;;7.50;;
26774;SDS011;14362;51.902;7.626;2023-02-18T15:07:17;10.82;;;7.50;;
26774;SDS011;14362;51.902;7.626;2023-02-18T15:11:21;13.75;;;9.18;;
26774;SDS011;14362;51.902;7.626;2023-02-18T15:15:25;17.20;;;9.45;;
26774;SDS011;14362;51.902;7.626;2023-02-18T15:19:27;16.58;;;9.18;;
26774;SDS011;14362;51.902;7.626;2023-02-18T15:23:33;12.00;;;8.75;;
26774;SDS011;14362;51.902;7.626;2023-02-18T15:27:39;16.50;;;8.63;;
26774;SDS011;14362;51.902;7.626;2023-02-18T15:31:45;15.68;;;8.25;;
26774;SDS011;14362;51.902;7.626;2023-02-18T15:35:48;17.17;;;7.90;;
26774;SDS011;14362;51.902;7.626;2023-02-18T15:39:49;12.95;;;7.75;;
26774;SDS011;14362;51.902;7.626;2023-02-18T15:43:53;13.45;;;8.32;;
26774;SDS011;14362;51.902;7.626;2023-02-18T15:48:00;19.60;;;9.50;;
26774;SDS011;14362;51.902;7.626;2023-02-18T15:52:02;14.52;;;8.40;;
26774;SDS011;14362;51.902;7.626;2023-02-18T15:56:05;13.75;;;8.88;;
26774;SDS011;14362;51.902;7.626;2023-02-18T16:00:13;20.63;;;9.13;;
26774;SDS011;14362;51.902;7.626;2023-02-18T16:04:19;16.88;;;9.32;;
26774;SDS011;14362;51.902;7.626;2023-02-18T16:08:23;13.43;;;9.27;;
26774;SDS011;14362;51.902;7.626;2023-02-18T16:12:26;17.80;;;9.77;;
26774;SDS011;14362;51.902;7.626;2023-02-18T16:16:34;13.07;;;8.52;;
26774;SDS011;14362;51.902;7.626;2023-02-18T16:20:38;14.18;;;9.00;;
26774;SDS011;14362;51.902;7.626;2023-02-18T16:24:40;14.52;;;9.05;;
26774;SDS011;14362;51.902;7.626;2023-02-18T16:28:44;17.50;;;8.60;;
26774;SDS011;14362;51.902;7.626;2023-02-18T16:32:47;17.75;;;8.35;;
26774;SDS011;14362;51.902;7.626;2023-02-18T16:36:49;14.98;;;8.82;;
26774;SDS011;14362;51.902;7.626;2023-02-18T16:41:09;16.13;;;8.73;;
26774;SDS011;14362;51.902;7.626;2023-02-18T16:45:11;16.48;;;8.32;;
26774;SDS011;14362;51.902;7.626;2023-02-18T16:49:14;17.23;;;9.13;;
26774;SDS011;14362;51.902;7.626;2023-02-18T16:53:16;17.92;;;9.73;;
26774;SDS011;14362;51.902;7.626;2023-02-18T16:57:19;15.93;;;8.45;;
26774;SDS011;14362;51.902;7.626;2023-02-18T17:01:21;17.85;;;8.90;;
26774;SDS011;14362;51.902;7.626;2023-02-18T17:05:27;10.38;;;7.63;;
26774;SDS011;14362;51.902;7.626;2023-02-18T17:09:30;21.27;;;8.63;;
26774;SDS011;14362;51.902;7.626;2023-02-18T17:13:32;17.08;;;8.35;;
26774;SDS011;14362;51.902;7.626;2023-02-18T17:17:33;15.65;;;8.45;;
26774;SDS011;14362;51.902;7.626;2023-02-18T17:21:36;20.35;;;7.93;;
26774;SDS011;14362;51.902;7.626;2023-02-18T17:25:38;14.50;;;8.23;;
26774;SDS011;14362;51.902;7.626;2023-02-18T17:29:41;17.88;;;7.80;;
26774;SDS011;14362;51.902;7.626;2023-02-18T17:33:42;18.40;;;8.77;;
26774;SDS011;14362;51.902;7.626;2023-02-18T17:37:45;16.77;;;8.32;;
26774;SDS011;14362;51.902;7.626;2023-02-18T17:41:47;16.35;;;8.07;;
26774;SDS011;14362;51.902;7.626;2023-02-18T17:45:49;13.55;;;8.23;;
26774;SDS011;14362;51.902;7.626;2023-02-18T17:49:52;19.17;;;8.40;;
26774;SDS011;14362;51.902;7.626;2023-02-18T17:53:55;17.05;;;8.43;;
26774;SDS011;14362;51.902;7.626;2023-02-18T17:57:57;15.35;;;9.25;;
26774;SDS011;14362;51.902;7.626;2023-02-18T18:01:59;13.15;;;7.80;;
26774;SDS011;14362;51.902;7.626;2023-02-18T18:06:00;14.02;;;8.55;;
26774;SDS011;14362;51.902;7.626;2023-02-18T18:10:05;17.42;;;9.60;;
26774;SDS011;14362;51.902;7.626;2023-02-18T18:18:11;20.98;;;9.48;;
26774;SDS011;14362;51.902;7.626;2023-02-18T18:22:13;14.23;;;8.60;;
26774;SDS011;14362;51.902;7.626;2023-02-18T18:26:16;20.40;;;9.60;;
26774;SDS011;14362;51.902;7.626;2023-02-18T18:30:19;16.17;;;9.05;;
26774;SDS011;14362;51.902;7.626;2023-02-18T18:34:21;15.85;;;8.38;;
26774;SDS011;14362;51.902;7.626;2023-02-18T18:38:24;17.48;;;9.38;;
26774;SDS011;14362;51.902;7.626;2023-02-18T18:42:27;15.00;;;9.10;;
26774;SDS011;14362;51.902;7.626;2023-02-18T18:46:29;16.85;;;9.32;;
26774;SDS011;14362;51.902;7.626;2023-02-18T18:50:30;16.33;;;10.05;;
26774;SDS011;14362;51.902;7.626;2023-02-18T18:54:33;14.40;;;9.80;;
26774;SDS011;14362;51.902;7.626;2023-02-18T18:58:35;18.55;;;9.60;;
26774;SDS011;14362;51.902;7.626;2023-02-18T19:02:37;13.15;;;9.50;;
26774;SDS011;14362;51.902;7.626;2023-02-18T19:06:40;17.23;;;10.35;;
26774;SDS011;14362;51.902;7.626;2023-02-18T19:10:42;18.20;;;9.30;;
26774;SDS011;14362;51.902;7.626;2023-02-18T19:14:46;18.95;;;10.05;;
26774;SDS011;14362;51.902;7.626;2023-02-18T19:18:48;14.10;;;9.15;;
26774;SDS011;14362;51.902;7.626;2023-02-18T19:22:49;17.60;;;10.48;;
26774;SDS011;14362;51.902;7.626;2023-02-18T19:26:51;16.83;;;11.13;;
26774;SDS011;14362;51.902;7.626;2023-02-18T19:30:54;19.20;;;11.80;;
26774;SDS011;14362;51.902;7.626;2023-02-18T19:34:55;18.27;;;11.07;;
26774;SDS011;14362;51.902;7.626;2023-02-18T19:38:57;15.73;;;11.35;;
26774;SDS011;14362;51.902;7.626;2023-02-18T19:42:58;23.13;;;12.38;;
26774;SDS011;14362;51.902;7.626;2023-02-18T19:47:01;17.38;;;12.63;;
26774;SDS011;14362;51.902;7.626;2023-02-18T19:51:03;17.27;;;12.68;;
26774;SDS011;14362;51.902;7.626;2023-02-18T19:55:07;19.63;;;12.98;;
26774;SDS011;14362;51.902;7.626;2023-02-18T19:59:08;19.25;;;13.52;;
26774;SDS011;14362;51.902;7.626;2023-02-18T20:03:11;15.98;;;12.98;;
26774;SDS011;14362;51.902;7.626;2023-02-18T20:07:16;21.85;;;13.52;;
26774;SDS011;14362;51.902;7.626;2023-02-18T20:11:19;18.05;;;11.65;;
26774;SDS011;14362;51.902;7.626;2023-02-18T20:15:21;18.63;;;12.25;;
26774;SDS011;14362;51.902;7.626;2023-02-18T20:19:24;20.38;;;14.35;;
26774;SDS011;14362;51.902;7.626;2023-02-18T20:27:29;20.58;;;13.52;;
26774;SDS011;14362;51.902;7.626;2023-02-18T20:31:32;21.00;;;14.88;;
26774;SDS011;14362;51.902;7.626;2023-02-18T20:35:34;23.23;;;14.13;;
26774;SDS011;14362;51.902;7.626;2023-02-18T20:39:36;17.80;;;14.05;;
26774;SDS011;14362;51.902;7.626;2023-02-18T20:43:37;22.05;;;15.80;;
26774;SDS011;14362;51.902;7.626;2023-02-18T20:47:39;27.95;;;15.27;;
26774;SDS011;14362;51.902;7.626;2023-02-18T20:51:42;24.80;;;16.33;;
26774;SDS011;14362;51.902;7.626;2023-02-18T20:55:44;23.13;;;15.27;;
26774;SDS011;14362;51.902;7.626;2023-02-18T20:59:46;22.55;;;17.00;;
26774;SDS011;14362;51.902;7.626;2023-02-18T21:03:48;27.42;;;17.23;;
26774;SDS011;14362;51.902;7.626;2023-02-18T21:07:51;27.55;;;17.48;;
26774;SDS011;14362;51.902;7.626;2023-02-18T21:11:52;29.88;;;18.52;;
26774;SDS011;14362;51.902;7.626;2023-02-18T21:15:53;31.05;;;19.80;;
26774;SDS011;14362;51.902;7.626;2023-02-18T21:19:55;29.80;;;19.05;;
26774;SDS011;14362;51.902;7.626;2023-02-18T21:23:58;29.45;;;18.55;;
26774;SDS011;14362;51.902;7.626;2023-02-18T21:27:59;33.45;;;19.10;;
26774;SDS011;14362;51.902;7.626;2023-02-18T21:32:01;28.30;;;18.40;;
26774;SDS011;14362;51.902;7.626;2023-02-18T21:36:02;25.30;;;15.48;;
26774;SDS011;14362;51.902;7.626;2023-02-18T21:40:06;24.80;;;14.88;;
26774;SDS011;14362;51.902;7.626;2023-02-18T21:44:07;26.20;;;14.35;;
26774;SDS011;14362;51.902;7.626;2023-02-18T21:48:09;21.45;;;14.10;;
26774;SDS011;14362;51.902;7.626;2023-02-18T21:52:28;22.08;;;13.30;;
26774;SDS011;14362;51.902;7.626;2023-02-18T21:56:32;18.73;;;13.10;;
26774;SDS011;14362;51.902;7.626;2023-02-18T22:00:34;19.92;;;13.82;;
26774;SDS011;14362;51.902;7.626;2023-02-18T22:04:35;20.25;;;13.38;;
26774;SDS011;14362;51.902;7.626;2023-02-18T22:08:37;27.33;;;16.20;;
26774;SDS011;14362;51.902;7.626;2023-02-18T22:12:40;23.23;;;15.40;;
26774;SDS011;14362;51.902;7.626;2023-02-18T22:16:41;25.55;;;16.83;;
26774;SDS011;14362;51.902;7.626;2023-02-18T22:20:43;20.02;;;15.05;;
26774;SDS011;14362;51.902;7.626;2023-02-18T22:24:44;18.65;;;15.20;;
26774;SDS011;14362;51.902;7.626;2023-02-18T22:28:50;19.65;;;13.68;;
26774;SDS011;14362;51.902;7.626;2023-02-18T22:32:53;17.88;;;13.52;;
26774;SDS011;14362;51.902;7.626;2023-02-18T22:36:54;16.98;;;12.63;;
26774;SDS011;14362;51.902;7.626;2023-02-18T22:40:56;15.25;;;12.60;;
26774;SDS011;14362;51.902;7.626;2023-02-18T22:45:05;17.02;;;12.43;;
26774;SDS011;14362;51.902;7.626;2023-02-18T22:49:07;17.77;;;13.40;;
26774;SDS011;14362;51.902;7.626;2023-02-18T22:53:08;14.00;;;10.60;;
26774;SDS011;14362;51.902;7.626;2023-02-18T22:57:10;12.75;;;10.05;;
26774;SDS011;14362;51.902;7.626;2023-02-18T23:01:18;14.00;;;10.50;;
26774;SDS011;14362;51.902;7.626;2023-02-18T23:05:20;12.75;;;10.27;;
26774;SDS011;14362;51.902;7.626;2023-02-18T23:09:22;12.43;;;9.18;;
26774;SDS011;14362;51.902;7.626;2023-02-18T23:13:25;12.35;;;9.07;;
26774;SDS011;14362;51.902;7.626;2023-02-18T23:17:28;17.48;;;12.73;;
26774;SDS011;14362;51.902;7.626;2023-02-18T23:21:30;21.77;;;15.55;;
26774;SDS011;14362;51.902;7.626;2023-02-18T23:25:31;25.88;;;18.58;;
26774;SDS011;14362;51.902;7.626;2023-02-18T23:29:33;34.47;;;22.88;;
26774;SDS011;14362;51.902;7.626;2023-02-18T23:33:36;29.55;;;18.88;;
26774;SDS011;14362;51.902;7.626;2023-02-18T23:37:37;25.55;;;17.95;;
26774;SDS011;14362;51.902;7.626;2023-02-18T23:41:56;27.85;;;18.73;;
26774;SDS011;14362;51.902;7.626;2023-02-18T23:45:58;28.73;;;19.42;;
26774;SDS011;14362;51.902;7.626;2023-02-18T23:50:01;27.98;;;19.38;;
26774;SDS011;14362;51.902;7.626;2023-02-18T23:54:02;24.35;;;16.85;;
26774;SDS011;14362;51.902;7.626;2023-02-18T23:58:04;24.73;;;18.02;;
